createdAt,value
2019-03-27T00:03:34.609Z,15.60
2019-03-27T00:06:03.421Z,17.37
2019-03-27T00:08:32.273Z,17.13
2019-03-27T00:11:01.361Z,17.50
2019-03-27T00:13:30.152Z,18.87
2019-03-27T00:19:01.278Z,21.33
2019-03-27T00:21:29.802Z,20.30
2019-03-27T00:27:01.686Z,20.20
2019-03-27T00:29:30.552Z,18.93
2019-03-27T00:32:39.460Z,18.80
2019-03-27T00:41:30.277Z,16.70
2019-03-27T00:47:08.642Z,16.73
2019-03-27T00:49:37.471Z,16.77
2019-03-27T00:52:06.682Z,18.03
2019-03-27T00:54:35.893Z,15.87
2019-03-27T00:57:04.717Z,15.73
2019-03-27T01:00:13.378Z,16.57
2019-03-27T01:03:00.911Z,15.63
2019-03-27T01:05:29.390Z,15.20
2019-03-27T01:14:00.622Z,18.30
2019-03-27T01:16:29.462Z,18.03
2019-03-27T01:18:58.561Z,17.37
2019-03-27T01:21:27.607Z,18.90
2019-03-27T01:23:55.331Z,19.10
2019-03-27T01:26:42.885Z,19.13
2019-03-27T01:29:12.036Z,19.10
2019-03-27T01:34:42.764Z,18.37
2019-03-27T01:37:11.986Z,17.90
2019-03-27T01:39:41.198Z,19.47
2019-03-27T01:42:09.982Z,18.67
2019-03-27T01:44:38.400Z,17.90
2019-03-27T01:47:07.154Z,20.10
2019-03-27T01:52:56.747Z,21.20
2019-03-27T01:55:25.513Z,22.73
2019-03-27T01:57:54.331Z,21.60
2019-03-27T02:00:23.442Z,21.97
2019-03-27T02:02:52.262Z,21.27
2019-03-27T02:05:20.856Z,21.80
2019-03-27T02:07:49.387Z,22.83
2019-03-27T02:10:18.142Z,22.63
2019-03-27T02:12:47.061Z,24.00
2019-03-27T02:15:16.286Z,21.33
2019-03-27T02:17:45.027Z,27.73
2019-03-27T02:20:14.283Z,24.07
2019-03-27T02:22:43.436Z,22.97
2019-03-27T02:25:12.376Z,24.33
2019-03-27T02:27:41.171Z,22.83
2019-03-27T02:30:49.667Z,22.63
2019-03-27T02:33:30.089Z,25.30
2019-03-27T02:39:00.105Z,22.83
2019-03-27T02:41:29.243Z,23.03
2019-03-27T02:43:58.057Z,24.30
2019-03-27T02:46:26.937Z,24.87
2019-03-27T02:48:56.198Z,24.30
2019-03-27T02:51:25.281Z,24.13
2019-03-27T02:56:35.450Z,22.97
2019-03-27T02:59:04.551Z,25.33
2019-03-27T03:01:51.433Z,23.20
2019-03-27T03:04:20.654Z,23.93
2019-03-27T03:06:49.875Z,22.90
2019-03-27T03:09:18.631Z,24.37
2019-03-27T03:11:58.826Z,23.13
2019-03-27T03:17:27.459Z,25.97
2019-03-27T03:19:55.986Z,23.43
2019-03-27T03:22:36.707Z,25.47
2019-03-27T03:25:45.373Z,25.10
2019-03-27T03:28:13.882Z,23.93
2019-03-27T03:33:44.790Z,24.60
2019-03-27T03:39:46.592Z,25.57
2019-03-27T03:42:15.429Z,24.13
2019-03-27T03:44:44.531Z,23.50
2019-03-27T03:47:13.357Z,24.27
2019-03-27T03:49:42.571Z,24.30
2019-03-27T03:52:22.676Z,26.13
2019-03-27T03:55:31.540Z,25.00
2019-03-27T04:10:19.369Z,25.77
2019-03-27T04:13:07.263Z,26.67
2019-03-27T04:15:36.160Z,26.30
2019-03-27T04:21:27.103Z,24.33
2019-03-27T04:24:02.854Z,24.57
2019-03-27T04:26:33.477Z,25.77
2019-03-27T04:29:08.601Z,25.77
2019-03-27T04:31:56.151Z,27.90
2019-03-27T04:34:24.702Z,25.30
2019-03-27T04:36:53.808Z,26.50
2019-03-27T04:42:29.879Z,26.33
2019-03-27T04:44:58.302Z,25.17
2019-03-27T04:47:32.531Z,26.13
2019-03-27T04:50:04.637Z,27.00
2019-03-27T04:52:44.673Z,28.77
2019-03-27T04:55:13.903Z,25.10
2019-03-27T04:57:54.082Z,35.23
2019-03-27T05:00:23.257Z,41.57
2019-03-27T05:02:52.068Z,37.13
2019-03-27T05:05:20.504Z,30.80
2019-03-27T05:08:28.687Z,30.23
2019-03-27T05:10:57.230Z,29.83
2019-03-27T05:13:26.423Z,29.80
2019-03-27T05:16:06.670Z,28.73
2019-03-27T05:18:35.389Z,30.03
2019-03-27T05:21:03.878Z,27.37
2019-03-27T05:26:34.201Z,26.53
2019-03-27T05:29:03.278Z,28.97
2019-03-27T05:31:31.771Z,29.90
2019-03-27T05:34:00.597Z,30.87
2019-03-27T05:45:13.513Z,25.90
2019-03-27T05:47:42.842Z,28.13
2019-03-27T05:50:23.515Z,26.90
2019-03-27T05:53:04.262Z,28.17
2019-03-27T05:58:35.904Z,26.27
2019-03-27T06:04:07.037Z,29.17
2019-03-27T06:06:36.279Z,29.33
2019-03-27T06:12:26.617Z,26.63
2019-03-27T06:14:55.802Z,27.40
2019-03-27T06:17:24.977Z,26.37
2019-03-27T06:20:33.472Z,27.40
2019-03-27T06:23:01.967Z,28.17
2019-03-27T06:25:31.248Z,31.07
2019-03-27T06:27:59.431Z,30.13
2019-03-27T06:33:37.553Z,27.07
2019-03-27T06:36:06.442Z,29.73
2019-03-27T06:38:35.588Z,29.53
2019-03-27T06:41:16.515Z,30.27
2019-03-27T06:44:16.687Z,31.80
2019-03-27T06:46:45.933Z,29.97
2019-03-27T06:49:54.816Z,32.43
2019-03-27T06:52:34.851Z,32.57
2019-03-27T06:55:43.508Z,33.77
2019-03-27T06:58:12.614Z,53.07
2019-03-27T07:00:41.677Z,44.27
2019-03-27T07:03:10.489Z,34.37
2019-03-27T07:05:39.724Z,44.60
2019-03-27T07:11:21.853Z,41.27
2019-03-27T07:13:50.677Z,35.13
2019-03-27T07:16:59.549Z,35.47
2019-03-27T07:19:28.822Z,30.77
2019-03-27T07:28:08.125Z,31.17
2019-03-27T07:30:36.927Z,37.50
2019-03-27T07:33:06.166Z,32.93
2019-03-27T07:36:15.162Z,31.57
2019-03-27T07:38:54.812Z,28.50
2019-03-27T07:41:42.335Z,30.50
2019-03-27T07:44:11.538Z,28.03
2019-03-27T07:50:01.132Z,26.67
2019-03-27T07:52:41.837Z,29.73
2019-03-27T07:55:50.342Z,29.87
2019-03-27T08:01:20.682Z,28.67
2019-03-27T08:03:49.577Z,27.20
2019-03-27T08:06:18.689Z,28.87
2019-03-27T08:08:47.787Z,27.43
2019-03-27T08:11:16.717Z,27.20
2019-03-27T08:13:45.989Z,27.90
2019-03-27T08:16:14.886Z,29.20
2019-03-27T08:18:43.725Z,27.23
2019-03-27T08:21:12.663Z,25.60
2019-03-27T08:23:40.743Z,24.67
2019-03-27T08:26:08.856Z,26.10
2019-03-27T08:28:37.819Z,25.27
2019-03-27T08:31:06.037Z,24.30
2019-03-27T08:33:35.208Z,23.93
2019-03-27T08:36:04.323Z,26.93
2019-03-27T08:38:33.217Z,26.20
2019-03-27T08:41:02.141Z,25.23
2019-03-27T08:43:30.191Z,23.60
2019-03-27T08:45:59.531Z,25.23
2019-03-27T08:48:28.284Z,24.00
2019-03-27T08:50:57.638Z,22.43
2019-03-27T08:53:26.527Z,24.07
2019-03-27T08:55:55.689Z,21.67
2019-03-27T08:58:24.574Z,24.13
2019-03-27T09:01:24.692Z,39.37
2019-03-27T09:03:53.809Z,30.60
2019-03-27T09:06:33.161Z,22.57
2019-03-27T09:08:59.418Z,25.17
2019-03-27T09:11:28.442Z,22.30
2019-03-27T09:13:57.293Z,25.60
2019-03-27T09:16:26.463Z,21.37
2019-03-27T09:19:36.348Z,19.70
2019-03-27T09:22:15.747Z,21.67
2019-03-27T09:24:44.570Z,17.93
2019-03-27T09:27:13.417Z,20.60
2019-03-27T09:29:42.220Z,18.17
2019-03-27T09:32:23.078Z,13.90
2019-03-27T09:34:52.414Z,48.13
2019-03-27T09:40:24.273Z,16.30
2019-03-27T09:43:11.778Z,19.77
2019-03-27T09:48:50.119Z,10.47
2019-03-27T09:51:18.980Z,19.70
2019-03-27T09:53:47.878Z,14.77
2019-03-27T09:56:19.463Z,14.67
2019-03-27T09:58:54.279Z,13.07
2019-03-27T10:04:32.817Z,10.20
2019-03-27T10:07:01.209Z,10.27
2019-03-27T10:12:30.480Z,14.13
2019-03-27T10:14:59.574Z,20.40
2019-03-27T10:20:27.350Z,15.23
2019-03-27T10:22:56.561Z,9.83
2019-03-27T10:25:25.462Z,12.27
2019-03-27T10:27:53.973Z,9.20
2019-03-27T10:30:23.102Z,7.97
2019-03-27T10:33:32.060Z,9.77
2019-03-27T10:36:01.012Z,12.07
2019-03-27T10:38:51.211Z,12.13
2019-03-27T10:41:19.713Z,11.47
2019-03-27T10:43:48.917Z,12.13
2019-03-27T10:46:17.707Z,10.83
2019-03-27T10:48:52.767Z,10.57
2019-03-27T10:51:17.560Z,8.80
2019-03-27T10:53:46.653Z,9.83
2019-03-27T10:56:15.525Z,10.27
2019-03-27T10:58:44.403Z,11.43
2019-03-27T11:01:13.598Z,9.57
2019-03-27T11:03:42.260Z,10.67
2019-03-27T11:06:11.068Z,10.67
2019-03-27T11:08:39.520Z,11.63
2019-03-27T11:11:08.754Z,12.07
2019-03-27T11:13:37.254Z,11.37
2019-03-27T11:16:06.064Z,11.83
2019-03-27T11:18:34.497Z,10.37
2019-03-27T11:21:03.402Z,10.47
2019-03-27T11:23:32.713Z,11.00
2019-03-27T11:26:01.588Z,10.10
2019-03-27T11:28:30.456Z,10.30
2019-03-27T11:34:19.957Z,9.63
2019-03-27T11:40:29.296Z,8.13
2019-03-27T11:42:57.825Z,19.27
2019-03-27T11:45:26.666Z,11.00
2019-03-27T11:47:55.452Z,10.13
2019-03-27T11:51:03.896Z,9.20
2019-03-27T11:54:12.843Z,8.43
2019-03-27T11:56:41.353Z,7.93
2019-03-27T11:59:09.883Z,10.70
2019-03-27T12:01:43.388Z,7.97
2019-03-27T12:04:16.316Z,8.27
2019-03-27T12:06:57.261Z,8.07
2019-03-27T12:09:26.463Z,7.60
2019-03-27T12:11:55.191Z,6.97
2019-03-27T12:14:24.315Z,8.07
2019-03-27T12:16:53.614Z,8.73
2019-03-27T12:19:22.448Z,7.57
2019-03-27T12:21:54.562Z,7.00
2019-03-27T12:24:29.022Z,7.33
2019-03-27T12:27:37.529Z,7.90
2019-03-27T12:33:26.955Z,9.30
2019-03-27T12:35:55.714Z,8.97
2019-03-27T12:41:38.212Z,8.93
2019-03-27T12:44:06.463Z,9.87
2019-03-27T12:46:34.956Z,9.13
2019-03-27T12:49:04.303Z,8.80
2019-03-27T12:51:33.458Z,8.63
2019-03-27T12:54:02.419Z,9.67
2019-03-27T12:57:11.365Z,52.37
2019-03-27T12:59:40.639Z,42.30
2019-03-27T13:05:19.035Z,45.37
2019-03-27T13:07:50.158Z,12.50
2019-03-27T13:10:24.649Z,19.13
2019-03-27T13:12:54.043Z,13.90
2019-03-27T13:15:22.935Z,11.17
2019-03-27T13:17:51.418Z,20.30
2019-03-27T13:23:22.939Z,9.00
2019-03-27T13:25:51.369Z,8.17
2019-03-27T13:28:20.281Z,8.87
2019-03-27T13:30:49.442Z,10.13
2019-03-27T13:33:18.810Z,11.03
2019-03-27T13:35:47.756Z,9.67
2019-03-27T13:38:16.736Z,8.87
2019-03-27T13:40:46.121Z,9.57
2019-03-27T13:43:15.081Z,9.10
2019-03-27T13:45:43.978Z,8.53
2019-03-27T13:48:12.794Z,9.07
2019-03-27T13:50:41.928Z,8.00
2019-03-27T13:53:10.869Z,8.70
2019-03-27T13:55:39.993Z,9.70
2019-03-27T13:58:08.749Z,9.43
2019-03-27T14:00:37.583Z,9.10
2019-03-27T14:03:26.005Z,9.50
2019-03-27T14:06:06.458Z,8.57
2019-03-27T14:08:35.418Z,8.80
2019-03-27T14:11:44.398Z,8.93
2019-03-27T14:14:12.899Z,8.83
2019-03-27T14:16:41.724Z,10.30
2019-03-27T14:19:10.644Z,9.10
2019-03-27T14:21:55.046Z,8.50
2019-03-27T14:24:22.162Z,9.20
2019-03-27T14:32:54.027Z,8.60
2019-03-27T14:36:02.913Z,9.77
2019-03-27T14:38:31.423Z,9.00
2019-03-27T14:41:00.270Z,11.97
2019-03-27T14:43:41.627Z,13.40
2019-03-27T14:46:10.708Z,13.03
2019-03-27T14:48:39.283Z,11.67
2019-03-27T14:51:08.470Z,9.93
2019-03-27T14:53:37.338Z,8.43
2019-03-27T14:59:27.408Z,8.87
2019-03-27T15:05:37.111Z,9.77
2019-03-27T15:11:07.900Z,8.40
2019-03-27T15:13:36.822Z,8.33
2019-03-27T15:16:06.038Z,7.03
2019-03-27T15:19:14.586Z,17.07
2019-03-27T15:21:43.473Z,11.77
2019-03-27T15:24:12.395Z,9.70
2019-03-27T15:26:41.135Z,9.73
2019-03-27T15:29:10.129Z,9.33
2019-03-27T15:34:19.864Z,10.70
2019-03-27T15:36:49.144Z,14.70
2019-03-27T15:39:18.400Z,14.17
2019-03-27T15:41:47.248Z,14.70
2019-03-27T15:46:56.160Z,13.23
2019-03-27T15:49:24.615Z,13.50
2019-03-27T15:51:53.473Z,14.10
2019-03-27T15:54:22.323Z,14.17
2019-03-27T15:56:51.299Z,14.77
2019-03-27T16:02:48.760Z,14.00
2019-03-27T16:05:17.615Z,15.67
2019-03-27T16:07:46.909Z,18.40
2019-03-27T16:10:18.374Z,15.03
2019-03-27T16:12:46.623Z,15.13
2019-03-27T16:15:55.515Z,14.70
2019-03-27T16:18:36.064Z,14.73
2019-03-27T16:21:05.278Z,12.70
2019-03-27T16:23:34.507Z,13.63
2019-03-27T16:26:03.729Z,15.07
2019-03-27T16:28:32.656Z,13.97
2019-03-27T16:34:12.935Z,24.57
2019-03-27T16:36:42.058Z,24.80
2019-03-27T16:39:51.074Z,27.60
2019-03-27T16:42:20.193Z,28.53
2019-03-27T16:44:49.492Z,30.73
2019-03-27T16:47:30.671Z,27.67
2019-03-27T16:49:59.723Z,38.23
2019-03-27T16:52:29.007Z,19.23
2019-03-27T16:54:57.583Z,18.67
2019-03-27T16:57:26.913Z,18.67
2019-03-27T17:00:15.580Z,32.63
2019-03-27T17:03:03.614Z,39.07
2019-03-27T17:05:32.253Z,20.97
2019-03-27T17:08:01.577Z,16.37
2019-03-27T17:11:10.544Z,16.20
2019-03-27T17:13:39.289Z,13.77
2019-03-27T17:16:08.545Z,14.37
2019-03-27T17:21:37.735Z,14.43
2019-03-27T17:24:05.965Z,15.07
2019-03-27T17:26:34.958Z,15.47
2019-03-27T17:29:43.944Z,14.07
2019-03-27T17:35:14.390Z,16.47
2019-03-27T17:43:54.648Z,13.93
2019-03-27T17:46:23.770Z,17.43
2019-03-27T17:52:13.184Z,15.97
2019-03-27T17:54:42.339Z,15.43
2019-03-27T17:57:11.217Z,14.47
2019-03-27T18:00:20.168Z,15.10
2019-03-27T18:02:49.093Z,14.60
2019-03-27T18:12:00.589Z,18.37
2019-03-27T18:17:49.904Z,14.20
2019-03-27T18:20:19.182Z,14.13
2019-03-27T18:22:48.485Z,14.77
2019-03-27T18:25:57.449Z,15.50
2019-03-27T18:31:27.736Z,13.73
2019-03-27T18:34:36.719Z,15.20
2019-03-27T18:37:36.534Z,15.73
2019-03-27T18:43:27.243Z,15.27
2019-03-27T18:49:06.164Z,19.37
2019-03-27T18:51:47.198Z,19.40
2019-03-27T18:57:17.178Z,20.53
2019-03-27T18:59:46.132Z,20.57
2019-03-27T19:02:26.873Z,20.37
2019-03-27T19:04:55.456Z,17.93
2019-03-27T19:08:04.452Z,16.70
2019-03-27T19:10:33.394Z,14.87
2019-03-27T19:16:04.646Z,15.80
2019-03-27T19:18:33.245Z,15.83
2019-03-27T19:21:02.523Z,15.87
2019-03-27T19:26:44.980Z,13.47
2019-03-27T19:29:45.171Z,14.47
2019-03-27T19:32:33.202Z,14.10
2019-03-27T19:37:23.870Z,14.47
2019-03-27T19:39:52.104Z,13.23
2019-03-27T19:45:40.873Z,14.10
2019-03-27T19:48:09.400Z,13.70
2019-03-27T19:50:38.558Z,14.30
2019-03-27T19:53:07.547Z,14.47
2019-03-27T19:55:48.239Z,14.33
2019-03-27T19:58:17.449Z,12.67
2019-03-27T20:00:46.770Z,13.03
2019-03-27T20:06:36.795Z,13.90
2019-03-27T20:09:46.803Z,14.20
2019-03-27T20:12:16.101Z,18.20
2019-03-27T20:14:44.725Z,29.93
2019-03-27T20:17:13.318Z,30.43
2019-03-27T20:19:42.552Z,21.83
2019-03-27T20:22:11.913Z,22.03
2019-03-27T20:24:41.494Z,19.63
2019-03-27T20:27:51.299Z,17.43
2019-03-27T20:37:03.516Z,18.93
2019-03-27T20:39:32.726Z,19.23
2019-03-27T20:42:41.670Z,18.23
2019-03-27T20:45:10.608Z,18.70
2019-03-27T20:47:39.179Z,19.70
2019-03-27T20:50:08.497Z,18.87
2019-03-27T20:52:37.893Z,19.87
2019-03-27T20:55:07.295Z,19.60
2019-03-27T20:57:36.673Z,17.50
2019-03-27T21:00:46.041Z,18.43
2019-03-27T21:06:28.459Z,19.13
2019-03-27T21:08:57.643Z,22.77
2019-03-27T21:11:26.940Z,25.87
2019-03-27T21:13:55.461Z,30.27
2019-03-27T21:16:24.422Z,36.17
2019-03-27T21:18:52.943Z,29.43
2019-03-27T21:24:23.148Z,20.17
2019-03-27T21:26:52.312Z,19.40
2019-03-27T21:29:21.614Z,19.27
2019-03-27T21:32:30.664Z,20.77
2019-03-27T21:38:20.532Z,16.73
2019-03-27T21:47:01.240Z,16.47
2019-03-27T21:49:49.326Z,17.60
2019-03-27T21:55:42.992Z,15.80
2019-03-27T21:58:17.289Z,16.77
2019-03-27T22:00:46.670Z,16.03
2019-03-27T22:03:36.202Z,16.80
2019-03-27T22:06:05.890Z,16.57
2019-03-27T22:09:14.893Z,21.60
2019-03-27T22:12:03.476Z,23.90
2019-03-27T22:14:53.515Z,25.60
2019-03-27T22:17:23.254Z,18.17
2019-03-27T22:19:52.638Z,17.80
2019-03-27T22:22:41.529Z,16.17
2019-03-27T22:25:09.950Z,16.00
2019-03-27T22:27:39.602Z,14.33
2019-03-27T22:33:11.573Z,15.37
2019-03-27T22:41:44.943Z,13.03
2019-03-27T22:44:14.624Z,18.77
2019-03-27T22:46:43.705Z,32.80
2019-03-27T22:49:12.981Z,23.97
2019-03-27T22:51:42.406Z,24.67
2019-03-27T22:54:11.312Z,41.70
2019-03-27T22:56:52.001Z,28.97
2019-03-27T22:59:41.071Z,26.87
2019-03-27T23:02:10.453Z,25.03
2019-03-27T23:08:11.914Z,22.03
2019-03-27T23:10:53.313Z,27.20
2019-03-27T23:13:41.844Z,25.32
2019-03-27T23:16:11.885Z,20.37
2019-03-27T23:18:59.878Z,22.50
2019-03-27T23:21:47.899Z,23.60
2019-03-27T23:26:56.966Z,26.93
2019-03-27T23:30:06.009Z,25.30
2019-03-27T23:33:14.566Z,21.10
2019-03-27T23:36:24.143Z,20.07
2019-03-27T23:39:32.261Z,19.77
2019-03-27T23:42:01.514Z,17.90
2019-03-27T23:44:31.545Z,17.77
2019-03-27T23:47:20.331Z,17.63
2019-03-27T23:49:49.775Z,17.87
2019-03-27T23:52:37.639Z,16.73
2019-03-27T23:55:18.374Z,14.37
2019-03-27T23:58:28.217Z,14.80
